Create Custom Reports and Graphics: Custom Report

North/Central Map

Map

15 Minute Data

South County Map

Map

15 Minute Data

Northern Sonoma County Latest

15 Stations

15 Minute Data | America/Los_Angeles
as of 10/23/21 1:58 AM PDT
Station Date Time Temp (°F) RH (%) Dew Pt (°F) Wind Spd (mph) Wind Dir (°) Wind Gust (mph) Latest Rain (In) Daily Rain (In) Daily Min Temp (°F) Daily Max Temp (°F)
Rockpile Lower (Cooley) 10/23/21 0130 50.3   6.8 90   10 47.5   9.7 0.9 NNE | 24 2.3   7.1 0.00 0.00 49.8   7.3 51.0   6.7
Rockpile Upper (Cooley) 10/23/21 0145 47.7   7.2 96   4 46.5   8.4 1.3 WNW | 299 2.6   20.2 0.00 0.00 47.5   7.2 48.0   7.3
Cloverdale-East (Ranch 83) 10/23/21 0145 51.5   8.6 98   2 51.0   8.0 0.1 WNW | 288 0.7   16.6 0.00 0.00 51.3   8.8 51.6   9.0
Cloverdale-SE (Ranch 38) 10/23/21 0145 51.3   7.6 94   4 49.7   8.8 0.5 SSW | 210 1.8   18.5 0.00 0.00 51.2   7.7 51.6   7.7
Geyserville-North (Hoffman) 10/23/21 0130 50.5   9.8 96   0 49.4   9.8 0.0 N | 0 0.0   12.6 0.00 0.00 50.2   9.7 51.6   9.1
Geyserville (Ranch 3) 10/23/21 0145 51.2   9.0 97   2 50.5   9.8 1.0 NNW | 334 1.8   10.7 0.00 0.00 51.2   9.0 52.3   8.2
Geyserville-East (Ranch 40) 10/23/21 0145 51.1   7.4 97   3 50.2   8.4 1.6 NNE | 22 2.3   21.9 0.00 0.00 51.0   7.5 51.9   7.0
Geyserville-South (Nervo Station) 10/23/21 0145 51.6   8.1 97   3 50.7   8.9 1.4 W | 275 3.8   7.0 0.00 0.00 50.9   8.5 51.8   8.2
Lytton (River Oaks) 10/23/21 0145 50.7   9.8 99   2 50.5   9.1 0.3 WSW | 240 1.4   8.5 0.00 0.00 50.4   10.0 51.6   9.2
Jimtown-North (Piccolo-R15) 10/23/21 0145 51.3   9.0 100   0 51.3   9.0 0.2 NNE | 26 1.3   7.2 0.00 0.00 51.0   9.0 52.4   8.3
Jimtown-NE (Red Fan) 10/23/21 0145 50.9   9.4 99   0 50.6   9.5 0.0 NNE | 23 0.4   7.3 0.00 0.00 50.8   9.4 52.2   8.3
HWY 128/Chalk Hill Rd (Landslide) 10/23/21 0145 51.2   9.3 98   1 50.8   9.0 0.0 S | 174 0.7   6.4 0.00 0.00 50.9   9.6 52.8   8.1
Knights Valley (Bavarian Lion) 10/23/21 0145 50.7   10.0 97   4 49.8   8.8 0.0 ENE | 63 1.1   13.7 0.00 0.00 50.2   10.3 52.1   8.9
Upper Dry Creek Valley 10/23/21 0145 51.6   8.5 97   2 50.8   9.0 0.3 NNW | 327 1.6   7.1 0.00 0.00 51.5   8.5 51.7   8.9
Lower Dry Creek Valley 10/23/21 0145 52.0   8.2 98   2 51.5   8.7 1.0 NW | 310 2.1   9.1 0.00 0.00 51.7   8.5 52.1   8.5
Max     52.0 100 51.5 1.6 - 3.8 0.00 0.00 51.7 52.8
Avg     50.9 97 50.1 0.6 - 1.6 0.00 - - -
Min     47.7 90 46.5 0.0 - 0.0 0.00 0.00 47.5 48.0

Central Sonoma County Latest

29 Stations

15 Minute Data | America/Los_Angeles
as of 10/23/21 1:58 AM PDT
Station Date Time Temp (°F) RH (%) Dew Pt (°F) Wind Spd (mph) Wind Dir (°) Wind Gust (mph) Latest Rain (In) Daily Rain (In) Daily Min Temp (°F) Daily Max Temp (°F)
Healdsburg-South (Sodini) 10/23/21 0145 52.3   7.8 96   1 51.3   8.2 0.0 N | 0 0.0   12.1 0.00 0.00 52.0   7.9 53.3   7.2
Windsor-NW (Ranch 8) 10/23/21 0145 52.6   8.2 86   2 48.5   7.3 0.0 N | 0 0.0   11.8 0.00 0.00 52.3   8.4 52.9   8.2
Windsor-East (Ranch 16) 10/23/21 0145 51.9   8.3 97   0 51.0   8.4 0.1 ESE | 119 0.9   10.5 0.00 0.00 51.7   8.4 53.3   7.4
Mark West-North (Ranch 14) 10/23/21 0145 51.8   8.3 96   2 50.6   8.8 0.0 N | 0 0.0   10.2 0.00 0.00 51.6   8.4 53.5   6.9
Windsor-SE (Silk Rd) 10/23/21 0145 50.7   9.7 99   0 50.3   9.6 0.3 SSE | 160 1.2   7.9 0.00 0.00 50.5   9.8 52.4   8.4
Fulton-NW (Ranch 5) 10/23/21 0145 52.5   7.8 99   0 52.2   7.8 0.3 N | 11 1.1   12.1 0.00 0.00 52.3   7.8 53.4   7.4
Windsor-South (Laughlin Rd) 10/23/21 0145 52.2   8.0 - - - - - 0.00 0.00 51.9   8.0 52.9   7.7
Fulton-SE (Barnes Rd) 10/23/21 0145 52.6   7.6 95   2 51.2   8.0 0.4 NE | 48 1.4   9.7 0.00 0.00 52.2   8.0 54.0   7.1
Fulton-SW (Ranch 21) 10/23/21 0145 51.7   8.4 97   0 50.9   8.4 0.1 NNW | 348 0.5   13.9 0.00 0.00 51.6   8.3 53.0   7.6
Santa Rosa-NW (Goldfields) 10/23/21 0145 52.8   7.4 100   0 52.7   7.5 0.0 N | 0 0.0   11.8 0.00 0.00 52.7   7.4 53.5   7.4
NW Santa Rosa (Piner Road) 10/23/21 0145 51.3   9.2 98   1 50.7   8.9 0.0 SW | 235 0.8   6.6 0.00 0.00 51.1   9.3 52.8   8.4
River Rd South (Denner Ranch) 10/23/21 0145 51.7   8.6 100   0 51.7   8.6 0.6 NW | 308 1.8   16.4 0.00 0.00 51.5   8.6 52.3   8.5
West Santa Rosa (Hawk's Roost) 10/23/21 0145 51.6   8.7 98   0 51.1   8.8 0.0 N | 0 0.0   7.2 0.00 0.00 51.5   8.7 52.6   8.1
Guerneville Rd (Prokopakis) 10/23/21 0145 51.4   9.1 99   0 51.1   9.2 - - - 0.00 0.00 51.3   9.2 52.4   8.6
Guerneville Rd West (Balletto) 10/23/21 0145 51.9   8.7 98   0 51.2   8.6 0.0 NW | 316 0.1   11.9 0.00 0.00 51.7   8.9 52.8   8.3
Guerneville Rd East (Rich Ranch) 10/23/21 0145 52.4   7.8 99   1 52.0   7.6 - - - - - 52.2   7.9 53.3   7.6
Occidental Rd (Sebastopol) 10/23/21 0145 51.9   7.8 100   0 52.0   7.8 0.0 N | 0 0.0   13.6 0.00 0.00 51.6   7.5 53.0   7.6
Lower Westside Rd (Ranch 12) 10/23/21 0145 51.2   9.2 97   0 50.4   9.1 0.0 N | 0 0.0   7.0 0.00 0.00 51.1   9.2 51.8   9.1
Guerneville (Laughlin Rd) 10/23/21 0145 52.1   8.2 98   3 51.6   7.3 0.2 SW | 233 1.5   4.0 0.00 0.00 51.9   8.4 52.3   8.6
Korbel (Winery) 10/23/21 0145 52.8   7.6 98   2 52.4   7.0 0.7 N | 2 1.9   4.8 0.00 0.00 52.7   7.7 53.2   7.6
Forestville (Shone Farms) 10/23/21 0145 52.0   8.5 96   0 51.1   8.4 0.1 SW | 230 1.3   7.2 0.00 0.00 51.0   7.6 53.3   8.3
Forestville-NE (Ranch 30) 10/23/21 0145 51.4   8.6 98   0 51.0   8.4 0.0 N | 0 0.0   10.2 0.00 0.00 51.4   8.5 51.6   8.6
Green Valley Vineyard 10/23/21 0145 51.2   8.8 98   1 50.6   8.3 0.0 N | 0 0.0   14.7 0.00 0.00 50.9   8.7 51.9   8.3
Graton-West (Dutton Ranch) 10/23/21 0145 51.5   9.2 100   0 51.5   9.2 0.1 NE | 43 0.7   11.6 0.00 0.00 51.3   9.2 52.0   8.9
Graton-South (Mill Station Rd) 10/23/21 0145 51.2   9.1 98   2 50.6   8.6 0.0 NW | 326 0.8   13.8 0.00 0.00 50.4   9.6 51.5   9.3
Occidental (Horseshoe Bend) 10/23/21 0145 50.4   7.6 99   1 50.1   8.0 - - - - - 50.2   7.7 51.6   6.7
Sexton Valley (Jacqueline's Blk) 10/23/21 0145 51.2   9.1 98   1 50.5   8.9 0.1 E | 90 1.2   7.2 0.00 0.00 50.9   9.4 51.5   9.1
Sebastopol Hills (Burnside Rd) 10/23/21 0145 52.4   6.9 100   1 52.3   6.5 1.2 W | 266 2.8   13.7 0.00 0.00 52.2   7.0 52.7   6.9
Seaview/Fort Ross (Hirsch) 10/23/21 0145 49.3   4.8 97   0 48.5   4.8 0.0 N | 0 0.0   17.3 0.00 0.00 49.0   5.0 49.4   5.1
Max     52.8 100 52.7 1.2 - 2.8 0.00 0.00 52.7 54.0
Avg     51.7 98 51.0 0.2 - 0.7 0.00 - - -
Min     49.3 86 48.5 0.0 - 0.0 0.00 0.00 49.0 49.4

Southern Sonoma County Latest

17 Stations

15 Minute Data | America/Los_Angeles
as of 10/23/21 1:58 AM PDT
Station Date Time Temp (°F) RH (%) Dew Pt (°F) Wind Spd (mph) Wind Dir (°) Wind Gust (mph) Latest Rain (In) Daily Rain (In) Daily Min Temp (°F) Daily Max Temp (°F)
Upper Rincon Valley 10/23/21 0145 51.2   6.7 99   1 51.0   7.0 0.3 SW | 218 2.1   6.6 0.00 0.00 51.1   6.8 51.4   6.7
Lower Bennett Valley 10/23/21 0145 51.5   8.8 96   1 50.5   8.5 0.4 SW | 224 1.1   6.3 0.00 0.00 50.9   9.3 53.0   7.8
Kenwood (Kunde) 10/23/21 0130 53.6   6.5 99   0 53.4   6.5 0.0 N | 0 0.0   10.1 0.00 0.00 53.3   6.6 54.1   6.1
Sonoma Valley (Bedrock) 10/23/21 0145 52.7   7.3 94   4 51.0   6.0 0.2 NNW | 339 1.7   5.0 0.00 0.00 52.4   7.0 53.1   7.2
Sonoma-West (Arnold) 10/23/21 0130 54.9   7.1 91   3 52.4   6.0 2.5 SW | 223 4.1   6.2 0.00 0.00 54.8   7.1 55.1   7.0
Sonoma Valley HS 10/23/21 0145 54.8   7.2 93   4 52.8   5.8 0.6 NNE | 32 1.2   8.7 0.00 0.00 54.6   7.2 55.2   7.0
Sonoma East (Bundschu01) 10/23/21 0145 54.9   7.1 94   5 53.2   5.6 0.1 SE | 127 0.9   10.5 0.00 0.00 54.8   7.2 55.3   7.0
Schellville (Sasaki) 10/23/21 0145 55.4   7.1 92   4 53.2   5.7 0.0 W | 263 1.1   8.7 0.00 0.00 55.3   7.0 55.6   7.0
Sonoma-SE (Napoli) 10/23/21 0145 55.0   7.0 90   3 52.2   6.2 0.0 N | 0 0.0   12.1 0.00 0.00 54.7   6.9 55.4   6.7
Carneros (Ranch 71) 10/23/21 0145 54.1   6.7 94   1 52.6   6.3 4.3 W | 275 6.7   2.6 0.00 0.00 54.0   6.2 54.3   6.7
Carneros Upper (Ranch 81) 10/23/21 0145 54.1   6.3 93   2 52.2   6.9 6.3 WSW | 256 8.3   7.9 - - 54.0   5.6 54.5   6.2
Carneros Lower (Ranch 81) 10/23/21 0145 54.3   6.0 94   6 52.7   7.7 0.2 W | 278 2.1   10.4 0.00 0.00 54.3   5.6 54.7   5.8
Rohnert Park-West (Stony Point) 10/23/21 0145 54.2   6.5 98   3 53.8   5.7 0.0 N | 0 0.0   11.3 0.00 0.00 54.0   6.6 54.6   6.6
Penngrove (Asellus) 10/23/21 0145 55.0   6.0 93   2 53.0   6.6 1.0 NNW | 341 2.4   5.2 0.00 0.00 54.9   6.0 55.2   6.5
Roger's Creek (Ranch 50) 10/23/21 0145 52.3   6.8 100   3 52.3   5.8 3.4 W | 269 5.3   4.7 0.00 0.00 52.3   6.7 52.7   6.9
Petaluma (Ranch 10) 10/23/21 0145 54.2   6.8 95   1 52.8   6.5 0.1 WSW | 253 1.1   2.8 0.00 0.00 53.9   7.0 54.9   6.5
Lakeville (Ranch 47) 10/23/21 0145 53.9   6.9 94   3 52.3   6.0 1.6 NNW | 332 2.2   13.1 0.00 0.00 53.7   7.0 54.0   7.5
Max     55.4 100 53.8 6.3 - 8.3 0.00 0.00 55.3 55.6
Avg     53.9 95 52.4 1.2 - 2.4 0.00 - - -
Min     51.2 90 50.5 0.0 - 0.0 0.00 0.00 50.9 51.4

Latest Observations

Map

Hourly Data